createdAt,value
2019-04-14T00:01:30.468Z,5.40
2019-04-14T00:04:09.914Z,5.50
2019-04-14T00:06:42.142Z,5.60
2019-04-14T00:09:18.530Z,5.60
2019-04-14T00:11:50.369Z,5.60
2019-04-14T00:14:20.816Z,5.50
2019-04-14T00:16:51.582Z,5.50
2019-04-14T00:19:21.719Z,5.60
2019-04-14T00:21:56.590Z,5.60
2019-04-14T00:24:31.257Z,5.70
2019-04-14T00:27:07.087Z,5.70
2019-04-14T00:29:39.247Z,5.60
2019-04-14T00:32:13.994Z,5.70
2019-04-14T00:35:02.087Z,5.70
2019-04-14T00:37:55.816Z,5.70
2019-04-14T00:40:45.437Z,5.60
2019-04-14T00:43:35.530Z,5.60
2019-04-14T00:46:38.837Z,5.70
2019-04-14T00:49:33.710Z,5.70
2019-04-14T00:52:31.858Z,5.70
2019-04-14T00:58:49.759Z,5.70
2019-04-14T01:01:26.570Z,5.70
2019-04-14T01:04:10.791Z,5.70
2019-04-14T01:11:18.141Z,5.70
2019-04-14T01:14:08.001Z,5.80
2019-04-14T04:20:56.654Z,6.00
2019-04-14T04:27:05.114Z,6.00
2019-04-14T04:30:21.432Z,6.00
2019-04-14T04:40:48.467Z,6.00
2019-04-14T04:44:11.625Z,6.00
2019-04-14T04:46:45.889Z,6.10
2019-04-14T04:49:24.230Z,6.10
2019-04-14T04:51:53.076Z,6.10
2019-04-14T04:54:26.165Z,6.20
2019-04-14T04:56:56.619Z,6.30
2019-04-14T04:59:27.770Z,6.20
2019-04-14T05:02:08.980Z,6.30
2019-04-14T05:04:43.742Z,6.30
2019-04-14T05:07:16.688Z,6.40
2019-04-14T05:10:24.224Z,6.50
2019-04-14T05:13:14.162Z,6.50
2019-04-14T05:15:59.815Z,6.60
2019-04-14T05:18:46.253Z,6.70
2019-04-14T05:22:04.922Z,6.70
2019-04-14T05:24:37.492Z,6.80
2019-04-14T05:27:07.870Z,6.80
2019-04-14T05:29:45.083Z,6.90
2019-04-14T05:32:26.087Z,6.90
2019-04-14T05:34:56.553Z,7.00
2019-04-14T05:37:33.723Z,7.00
2019-04-14T05:40:18.799Z,7.00
2019-04-14T05:42:45.157Z,7.10
2019-04-14T05:45:21.916Z,7.20
2019-04-14T05:47:52.263Z,7.30
2019-04-14T05:50:57.780Z,7.30
2019-04-14T05:53:30.800Z,7.40
2019-04-14T05:56:03.528Z,7.50
2019-04-14T05:58:40.546Z,7.50
2019-04-14T06:01:11.304Z,7.50
2019-04-14T06:03:41.442Z,7.40
2019-04-14T06:06:11.182Z,7.50
2019-04-14T06:08:40.895Z,7.50
2019-04-14T06:11:10.685Z,7.50
2019-04-14T06:13:40.503Z,7.60
2019-04-14T06:16:10.220Z,7.50
2019-04-14T06:18:39.952Z,7.50
2019-04-14T06:21:12.319Z,7.60
2019-04-14T06:23:48.212Z,7.60
2019-04-14T06:26:19.363Z,7.60
2019-04-14T06:29:14.978Z,7.80
2019-04-14T06:32:03.484Z,7.80
2019-04-14T06:35:00.646Z,7.70
2019-04-14T06:37:50.922Z,7.70
2019-04-14T06:40:21.428Z,7.80
2019-04-14T06:43:05.583Z,7.90
2019-04-14T06:45:31.148Z,7.90
2019-04-14T06:48:00.868Z,7.90
2019-04-14T06:50:30.518Z,8.10
2019-04-14T06:53:00.253Z,8.10
2019-04-14T06:55:30.023Z,8.20
2019-04-14T06:57:59.871Z,8.40
2019-04-14T07:00:29.493Z,8.40
2019-04-14T07:02:59.115Z,8.60
2019-04-14T07:05:28.725Z,8.70
2019-04-14T07:07:58.353Z,8.70
2019-04-14T07:10:28.038Z,8.70
2019-04-14T07:12:57.673Z,8.70
2019-04-14T07:15:27.361Z,8.70
2019-04-14T07:17:57.025Z,8.70
2019-04-14T07:20:28.753Z,8.50
2019-04-14T07:22:58.964Z,8.50
2019-04-14T07:25:28.718Z,8.40
2019-04-14T07:28:04.212Z,8.40
2019-04-14T07:31:01.792Z,8.40
2019-04-14T07:33:54.205Z,8.40
2019-04-14T07:36:34.950Z,8.50
2019-04-14T07:39:23.050Z,8.50
2019-04-14T07:42:05.410Z,8.60
2019-04-14T07:45:02.370Z,8.80
2019-04-14T07:47:42.892Z,8.70
2019-04-14T07:50:30.239Z,8.70
2019-04-14T07:53:08.497Z,8.80
2019-04-14T07:55:57.077Z,8.80
2019-04-14T07:58:39.597Z,8.90
2019-04-14T08:01:40.256Z,9.00
2019-04-14T08:04:13.513Z,9.00
2019-04-14T08:06:47.506Z,9.10
2019-04-14T08:09:19.318Z,9.10
2019-04-14T08:11:53.753Z,9.20
2019-04-14T08:14:26.450Z,9.00
2019-04-14T08:16:56.146Z,9.10
2019-04-14T08:19:26.246Z,9.10
2019-04-14T08:21:56.098Z,9.30
2019-04-14T08:24:28.827Z,9.50
2019-04-14T08:27:19.889Z,9.80
2019-04-14T08:29:52.994Z,9.80
2019-04-14T08:32:25.353Z,9.80
2019-04-14T08:34:55.232Z,9.90
2019-04-14T08:37:24.904Z,10.00
2019-04-14T08:39:54.569Z,10.00
2019-04-14T08:43:01.059Z,10.00
2019-04-14T08:45:46.522Z,10.00
2019-04-14T08:48:24.079Z,10.50
2019-04-14T08:51:03.905Z,10.40
2019-04-14T08:53:44.221Z,10.30
2019-04-14T08:56:21.833Z,10.20
2019-04-14T08:59:19.125Z,10.10
2019-04-14T09:02:22.853Z,10.20
2019-04-14T09:05:14.353Z,10.30
2019-04-14T09:08:14.954Z,10.20
2019-04-14T09:10:48.621Z,10.40
2019-04-14T09:13:18.221Z,10.40
2019-04-14T09:18:16.579Z,10.40
2019-04-14T09:20:52.182Z,10.50
2019-04-14T09:23:17.622Z,10.60
2019-04-14T09:25:47.237Z,10.80
2019-04-14T09:28:16.881Z,11.00
2019-04-14T09:30:46.475Z,11.00
2019-04-14T09:33:16.120Z,11.00
2019-04-14T09:35:45.761Z,11.00
2019-04-14T09:38:15.440Z,11.00
2019-04-14T09:40:45.107Z,10.90
2019-04-14T09:43:14.789Z,10.80
2019-04-14T09:45:44.453Z,10.70
2019-04-14T09:48:14.134Z,10.70
2019-04-14T09:50:44.089Z,10.90
2019-04-14T09:53:13.824Z,11.10
2019-04-14T09:55:43.544Z,11.30
2019-04-14T09:58:13.236Z,11.50
2019-04-14T10:00:43.013Z,11.40
2019-04-14T10:03:12.716Z,11.40
2019-04-14T10:05:42.318Z,11.60
2019-04-14T10:08:12.007Z,11.50
2019-04-14T10:10:41.662Z,11.50
2019-04-14T10:13:11.292Z,11.50
2019-04-14T10:15:41.538Z,11.30
2019-04-14T10:18:11.147Z,11.20
2019-04-14T10:20:40.765Z,11.10
2019-04-14T10:23:10.368Z,11.10
2019-04-14T10:25:40.101Z,11.00
2019-04-14T10:28:09.677Z,11.00
2019-04-14T10:30:39.325Z,10.90
2019-04-14T10:33:08.936Z,10.90
2019-04-14T10:35:38.531Z,10.90
2019-04-14T10:38:08.174Z,11.10
2019-04-14T10:40:37.828Z,11.40
2019-04-14T10:43:07.505Z,11.70
2019-04-14T10:45:37.188Z,11.80
2019-04-14T10:48:06.945Z,12.00
2019-04-14T10:50:36.708Z,12.00
2019-04-14T10:53:07.769Z,12.10
2019-04-14T10:55:37.468Z,12.40
2019-04-14T10:58:07.164Z,12.60
2019-04-14T11:00:36.807Z,12.50
2019-04-14T11:03:06.508Z,12.50
2019-04-14T11:05:45.125Z,12.40
2019-04-14T11:08:14.796Z,12.30
2019-04-14T11:10:44.395Z,12.20
2019-04-14T11:13:14.000Z,12.40
2019-04-14T11:15:43.645Z,12.50
2019-04-14T11:18:13.281Z,12.60
2019-04-14T11:20:43.047Z,12.80
2019-04-14T11:23:12.651Z,12.90
2019-04-14T11:25:42.297Z,12.80
2019-04-14T11:28:12.018Z,12.90
2019-04-14T11:30:41.650Z,13.00
2019-04-14T11:33:28.803Z,12.90
2019-04-14T11:36:20.423Z,13.00
2019-04-14T11:38:58.275Z,13.00
2019-04-14T11:41:27.917Z,13.00
2019-04-14T11:43:57.647Z,13.20
2019-04-14T11:46:27.624Z,13.20
2019-04-14T11:48:57.237Z,13.20
2019-04-14T11:51:26.921Z,13.00
2019-04-14T11:53:56.541Z,13.20
2019-04-14T11:56:26.125Z,13.20
2019-04-14T11:58:55.806Z,13.30
2019-04-14T12:01:41.672Z,13.30
2019-04-14T12:04:20.775Z,13.40
2019-04-14T12:07:09.363Z,13.60
2019-04-14T12:09:45.035Z,13.50
2019-04-14T12:12:14.725Z,13.50
2019-04-14T12:14:44.385Z,13.40
2019-04-14T12:17:14.040Z,13.50
2019-04-14T12:19:43.728Z,13.70
2019-04-14T12:22:13.309Z,13.70
2019-04-14T12:24:43.001Z,13.70
2019-04-14T12:27:12.670Z,13.70
2019-04-14T12:29:43.287Z,13.80
2019-04-14T12:32:14.959Z,13.80
2019-04-14T12:34:45.021Z,13.70
2019-04-14T12:37:14.658Z,13.50
2019-04-14T12:39:44.329Z,13.50
2019-04-14T12:42:38.668Z,13.60
2019-04-14T12:45:27.188Z,13.70
2019-04-14T12:48:03.187Z,13.60
2019-04-14T12:50:54.358Z,13.60
2019-04-14T12:53:25.971Z,13.80
2019-04-14T12:55:55.535Z,13.80
2019-04-14T12:58:35.290Z,13.90
2019-04-14T13:01:09.068Z,14.00
2019-04-14T13:03:41.984Z,14.00
2019-04-14T13:06:15.010Z,13.80
2019-04-14T13:08:44.812Z,13.70
2019-04-14T13:11:14.442Z,13.90
2019-04-14T13:13:44.109Z,13.80
2019-04-14T13:16:13.815Z,13.90
2019-04-14T13:18:43.425Z,13.90
2019-04-14T13:21:13.054Z,13.80
2019-04-14T13:23:42.701Z,13.80
2019-04-14T13:26:12.349Z,13.70
2019-04-14T13:28:42.054Z,13.70
2019-04-14T13:31:11.622Z,13.70
2019-04-14T13:33:41.304Z,13.70
2019-04-14T13:36:11.157Z,13.80
2019-04-14T13:38:40.794Z,13.80
2019-04-14T13:41:10.419Z,13.80
2019-04-14T13:43:40.070Z,13.70
2019-04-14T13:46:09.693Z,13.60
2019-04-14T13:48:39.316Z,13.50
2019-04-14T13:51:09.005Z,13.50
2019-04-14T13:53:38.764Z,13.40
2019-04-14T13:56:08.386Z,13.50
2019-04-14T13:58:40.605Z,13.60
2019-04-14T14:01:09.430Z,13.80
2019-04-14T14:03:39.081Z,13.70
2019-04-14T14:06:08.913Z,13.80
2019-04-14T14:08:38.607Z,13.80
2019-04-14T14:11:19.377Z,13.70
2019-04-14T14:13:54.490Z,13.60
2019-04-14T14:16:37.875Z,13.60
2019-04-14T14:19:12.792Z,13.60
2019-04-14T14:21:50.223Z,13.60
2019-04-14T14:24:35.537Z,13.50
2019-04-14T14:27:05.808Z,13.50
2019-04-14T14:29:35.457Z,13.50
2019-04-14T14:32:06.776Z,13.50
2019-04-14T14:34:36.782Z,13.50
2019-04-14T14:37:06.443Z,13.50
2019-04-14T14:39:37.541Z,13.60
2019-04-14T14:42:07.212Z,13.60
2019-04-14T14:44:41.550Z,13.70
2019-04-14T14:47:19.813Z,13.80
2019-04-14T14:50:08.583Z,13.70
2019-04-14T14:52:39.500Z,13.80
2019-04-14T14:55:09.310Z,13.80
2019-04-14T14:57:38.988Z,13.90
2019-04-14T15:00:16.884Z,13.80
2019-04-14T15:02:46.516Z,13.80
2019-04-14T15:05:16.209Z,13.80
2019-04-14T15:07:45.862Z,13.90
2019-04-14T15:10:15.491Z,13.90
2019-04-14T15:12:45.111Z,13.90
2019-04-14T15:15:14.763Z,13.80
2019-04-14T15:17:44.416Z,13.80
2019-04-14T15:20:14.117Z,13.90
2019-04-14T15:22:43.772Z,13.90
2019-04-14T15:25:13.973Z,14.10
2019-04-14T15:27:43.549Z,14.10
2019-04-14T15:30:18.037Z,14.10
2019-04-14T15:32:47.820Z,14.00
2019-04-14T15:35:17.336Z,14.00
2019-04-14T15:37:46.893Z,13.90
2019-04-14T15:40:16.613Z,13.90
2019-04-14T15:42:46.127Z,13.90
2019-04-14T15:45:15.675Z,13.90
2019-04-14T15:47:45.213Z,13.90
2019-04-14T15:50:14.738Z,13.80
2019-04-14T15:52:44.294Z,13.70
2019-04-14T15:55:14.807Z,13.70
2019-04-14T15:57:53.435Z,13.60
2019-04-14T16:00:41.899Z,13.60
2019-04-14T16:03:25.462Z,13.50
2019-04-14T16:06:12.472Z,13.60
2019-04-14T16:08:51.587Z,13.60
2019-04-14T16:11:32.354Z,13.50
2019-04-14T16:14:23.477Z,13.50
2019-04-14T16:17:32.516Z,13.60
2019-04-14T16:20:15.865Z,13.60
2019-04-14T16:22:45.823Z,13.60
2019-04-14T16:25:15.705Z,13.60
2019-04-14T16:27:53.196Z,13.60
2019-04-14T16:30:28.989Z,13.50
2019-04-14T16:33:13.729Z,13.50
2019-04-14T16:35:43.450Z,13.50
2019-04-14T16:38:13.087Z,13.40
2019-04-14T16:40:42.739Z,13.30
2019-04-14T16:43:12.345Z,13.30
2019-04-14T16:45:41.942Z,13.20
2019-04-14T16:48:11.590Z,13.20
2019-04-14T16:50:44.033Z,13.10
2019-04-14T16:53:19.041Z,13.00
2019-04-14T16:56:07.343Z,13.00
2019-04-14T16:58:40.206Z,12.90
2019-04-14T17:01:12.849Z,12.90
2019-04-14T17:03:42.618Z,12.90
2019-04-14T17:06:24.910Z,12.80
2019-04-14T17:08:53.949Z,12.70
2019-04-14T17:11:24.239Z,12.70
2019-04-14T17:14:18.716Z,12.60
2019-04-14T17:17:03.632Z,12.60
2019-04-14T17:19:57.182Z,12.60
2019-04-14T17:22:53.457Z,12.40
2019-04-14T17:25:30.800Z,12.40
2019-04-14T17:31:44.596Z,12.10
2019-04-14T17:34:18.555Z,12.10
2019-04-14T17:36:55.739Z,12.00
2019-04-14T17:39:44.459Z,12.00
2019-04-14T17:42:21.695Z,11.90
2019-04-14T17:45:16.014Z,11.80
2019-04-14T17:48:07.248Z,11.70
2019-04-14T17:51:03.488Z,11.70
2019-04-14T17:53:54.820Z,11.70
2019-04-14T17:56:29.785Z,11.50
2019-04-14T17:59:18.086Z,11.50
2019-04-14T18:02:13.299Z,11.50
2019-04-14T18:04:53.973Z,11.40
2019-04-14T18:07:45.292Z,11.40
2019-04-14T18:10:19.987Z,11.30
2019-04-14T18:13:11.314Z,11.20
2019-04-14T18:15:52.200Z,11.20
2019-04-14T18:18:50.821Z,11.20
2019-04-14T18:21:20.612Z,11.20
2019-04-14T18:23:50.321Z,11.10
2019-04-14T18:26:20.045Z,11.00
2019-04-14T18:29:07.474Z,11.00
2019-04-14T18:31:42.502Z,10.90
2019-04-14T18:34:31.039Z,10.80
2019-04-14T18:37:16.663Z,10.80
2019-04-14T18:40:08.262Z,10.80
2019-04-14T18:43:01.284Z,10.80
2019-04-14T18:45:43.028Z,10.70
2019-04-14T18:48:40.797Z,10.70
2019-04-14T18:51:41.198Z,10.60
2019-04-14T18:54:53.790Z,10.60
2019-04-14T18:57:37.733Z,10.50
2019-04-14T19:00:15.343Z,10.50
2019-04-14T19:02:45.060Z,10.40
2019-04-14T19:05:14.815Z,10.40
2019-04-14T19:07:44.454Z,10.30
2019-04-14T19:10:14.456Z,10.40
2019-04-14T19:12:49.950Z,10.40
2019-04-14T19:15:38.501Z,10.30
2019-04-14T19:18:13.308Z,10.30
2019-04-14T19:20:45.767Z,10.20
2019-04-14T19:23:15.542Z,10.10
2019-04-14T19:25:45.634Z,10.10
2019-04-14T19:28:15.542Z,10.10
2019-04-14T19:30:45.267Z,10.10
2019-04-14T19:33:15.029Z,10.00
2019-04-14T19:35:47.741Z,10.00
2019-04-14T19:38:17.403Z,9.90
2019-04-14T19:40:47.151Z,9.80
2019-04-14T19:43:23.601Z,9.80
2019-04-14T19:45:48.088Z,9.80
2019-04-14T19:48:17.874Z,9.70
2019-04-14T19:50:47.515Z,9.60
2019-04-14T19:53:17.233Z,9.60
2019-04-14T19:55:47.472Z,9.60
2019-04-14T19:58:17.164Z,9.50
2019-04-14T20:00:46.983Z,9.50
2019-04-14T20:03:16.642Z,9.50
2019-04-14T20:05:46.313Z,9.40
2019-04-14T20:09:21.105Z,9.40
2019-04-14T20:11:50.850Z,9.40
2019-04-14T20:14:20.575Z,9.30
2019-04-14T20:17:07.181Z,9.20
2019-04-14T20:19:47.927Z,9.20
2019-04-14T20:22:31.422Z,9.20
2019-04-14T20:25:32.850Z,9.10
2019-04-14T20:28:02.235Z,9.10
2019-04-14T20:30:44.836Z,9.10
2019-04-14T20:33:14.613Z,9.10
2019-04-14T20:35:44.328Z,9.00
2019-04-14T20:38:13.997Z,8.90
2019-04-14T20:40:43.676Z,8.90
2019-04-14T20:43:13.349Z,8.80
2019-04-14T20:45:43.070Z,8.80
2019-04-14T20:48:12.680Z,8.80
2019-04-14T20:50:42.326Z,8.70
2019-04-14T20:53:12.025Z,8.70
2019-04-14T20:55:47.249Z,8.70
2019-04-14T20:58:14.339Z,8.70
2019-04-14T21:00:44.074Z,8.60
2019-04-14T21:03:31.221Z,8.60
2019-04-14T21:06:21.046Z,8.50
2019-04-14T21:09:09.515Z,8.50
2019-04-14T21:11:54.745Z,8.50
2019-04-14T21:14:53.541Z,8.40
2019-04-14T21:17:29.904Z,8.40
2019-04-14T21:20:43.903Z,8.30
2019-04-14T21:23:32.433Z,8.30
2019-04-14T21:26:26.709Z,8.30
2019-04-14T21:29:08.255Z,8.20
2019-04-14T21:31:51.480Z,8.20
2019-04-14T21:34:37.123Z,8.20
2019-04-14T21:37:34.488Z,8.10
2019-04-14T21:40:35.590Z,8.00
2019-04-14T21:43:05.217Z,8.00
2019-04-14T21:45:34.801Z,8.00
2019-04-14T21:48:04.444Z,8.00
2019-04-14T21:50:34.268Z,7.90
2019-04-14T21:53:06.592Z,7.90
2019-04-14T21:55:37.669Z,7.90
2019-04-14T21:58:32.258Z,7.80
2019-04-14T22:01:53.829Z,7.80
2019-04-14T22:04:50.139Z,7.80
2019-04-14T22:07:41.493Z,7.70
2019-04-14T22:10:21.403Z,7.70
2019-04-14T22:12:51.009Z,7.70
2019-04-14T22:15:20.729Z,7.60
2019-04-14T22:17:50.340Z,7.60
2019-04-14T22:20:19.981Z,7.60
2019-04-14T22:22:49.620Z,7.60
2019-04-14T22:25:19.417Z,7.60
2019-04-14T22:27:49.149Z,7.60
2019-04-14T22:30:18.882Z,7.60
2019-04-14T22:32:48.937Z,7.50
2019-04-14T22:35:18.641Z,7.50
2019-04-14T22:37:48.230Z,7.40
2019-04-14T22:40:17.973Z,7.40
2019-04-14T22:42:47.634Z,7.40
2019-04-14T22:45:17.376Z,7.30
2019-04-14T22:47:47.044Z,7.30
2019-04-14T22:50:16.826Z,7.30
2019-04-14T22:52:46.479Z,7.30
2019-04-14T22:55:16.165Z,7.20
2019-04-14T22:57:46.018Z,7.20
2019-04-14T23:00:27.177Z,7.20
2019-04-14T23:03:07.405Z,7.10
2019-04-14T23:05:50.964Z,7.10
2019-04-14T23:08:29.355Z,7.10
2019-04-14T23:11:07.928Z,7.10
2019-04-14T23:13:43.444Z,7.10
2019-04-14T23:16:26.704Z,7.10
2019-04-14T23:19:15.545Z,7.00
2019-04-14T23:22:01.906Z,7.10
2019-04-14T23:24:34.901Z,7.00
2019-04-14T23:27:04.667Z,7.00
2019-04-14T23:29:34.332Z,7.00
2019-04-14T23:32:04.569Z,7.00
2019-04-14T23:34:34.189Z,6.90
2019-04-14T23:37:03.859Z,6.90
2019-04-14T23:39:33.523Z,6.90
2019-04-14T23:42:03.205Z,6.80
2019-04-14T23:44:32.845Z,6.70
2019-04-14T23:47:02.552Z,6.70
2019-04-14T23:49:32.090Z,6.70
2019-04-14T23:52:01.752Z,6.70
2019-04-14T23:54:31.351Z,6.80
2019-04-14T23:57:06.147Z,6.70
2019-04-14T23:59:32.176Z,6.70
